sensor_id;sensor_type;location;lat;lon;timestamp;temperature;humidity
9907;DHT22;4992;51.628;6.664;2024-03-02T00:00:01;8.20;99.90
9907;DHT22;4992;51.628;6.664;2024-03-02T00:02:39;8.30;99.90
9907;DHT22;4992;51.628;6.664;2024-03-02T00:05:06;8.30;99.90
9907;DHT22;4992;51.628;6.664;2024-03-02T00:07:31;8.40;99.90
9907;DHT22;4992;51.628;6.664;2024-03-02T00:09:57;8.40;99.90
9907;DHT22;4992;51.628;6.664;2024-03-02T00:12:23;8.40;99.90
9907;DHT22;4992;51.628;6.664;2024-03-02T00:14:48;8.30;99.90
9907;DHT22;4992;51.628;6.664;2024-03-02T00:17:21;8.30;99.90
9907;DHT22;4992;51.628;6.664;2024-03-02T00:19:49;8.30;99.90
9907;DHT22;4992;51.628;6.664;2024-03-02T00:22:15;8.30;99.90
9907;DHT22;4992;51.628;6.664;2024-03-02T00:24:41;8.40;99.90
9907;DHT22;4992;51.628;6.664;2024-03-02T00:27:07;8.40;99.90
9907;DHT22;4992;51.628;6.664;2024-03-02T00:29:33;8.50;99.90
9907;DHT22;4992;51.628;6.664;2024-03-02T00:32:01;8.50;99.90
9907;DHT22;4992;51.628;6.664;2024-03-02T00:34:26;8.50;99.90
9907;DHT22;4992;51.628;6.664;2024-03-02T00:36:52;8.60;99.90
9907;DHT22;4992;51.628;6.664;2024-03-02T00:39:18;8.70;99.90
9907;DHT22;4992;51.628;6.664;2024-03-02T00:41:44;8.70;99.90
9907;DHT22;4992;51.628;6.664;2024-03-02T00:44:12;8.80;99.90
9907;DHT22;4992;51.628;6.664;2024-03-02T00:46:42;8.80;99.90
9907;DHT22;4992;51.628;6.664;2024-03-02T00:49:21;8.80;99.90
9907;DHT22;4992;51.628;6.664;2024-03-02T00:51:47;8.80;99.90
9907;DHT22;4992;51.628;6.664;2024-03-02T00:54:23;8.80;99.90
9907;DHT22;4992;51.628;6.664;2024-03-02T00:56:50;8.90;99.90
9907;DHT22;4992;51.628;6.664;2024-03-02T00:59:16;8.90;99.90
9907;DHT22;4992;51.628;6.664;2024-03-02T01:01:42;9.00;99.90
9907;DHT22;4992;51.628;6.664;2024-03-02T01:04:08;9.00;99.90
9907;DHT22;4992;51.628;6.664;2024-03-02T01:06:35;9.00;99.90
9907;DHT22;4992;51.628;6.664;2024-03-02T01:09:01;9.00;99.90
9907;DHT22;4992;51.628;6.664;2024-03-02T01:11:28;9.00;99.90
9907;DHT22;4992;51.628;6.664;2024-03-02T01:13:53;9.00;99.90
9907;DHT22;4992;51.628;6.664;2024-03-02T01:16:19;8.90;99.90
9907;DHT22;4992;51.628;6.664;2024-03-02T01:18:44;8.90;99.90
9907;DHT22;4992;51.628;6.664;2024-03-02T01:21:10;9.00;99.90
9907;DHT22;4992;51.628;6.664;2024-03-02T01:23:35;9.10;99.90
9907;DHT22;4992;51.628;6.664;2024-03-02T01:26:01;9.10;99.90
9907;DHT22;4992;51.628;6.664;2024-03-02T01:28:27;9.00;99.90
9907;DHT22;4992;51.628;6.664;2024-03-02T01:30:53;9.10;99.90
9907;DHT22;4992;51.628;6.664;2024-03-02T01:33:19;9.10;99.90
9907;DHT22;4992;51.628;6.664;2024-03-02T01:35:45;9.20;99.90
9907;DHT22;4992;51.628;6.664;2024-03-02T01:38:11;9.10;99.90
9907;DHT22;4992;51.628;6.664;2024-03-02T01:40:37;9.10;99.90
9907;DHT22;4992;51.628;6.664;2024-03-02T01:43:07;9.10;99.90
9907;DHT22;4992;51.628;6.664;2024-03-02T01:45:34;9.20;99.90
9907;DHT22;4992;51.628;6.664;2024-03-02T01:48:01;9.20;99.90
9907;DHT22;4992;51.628;6.664;2024-03-02T01:52:52;9.30;99.90
9907;DHT22;4992;51.628;6.664;2024-03-02T01:55:18;9.30;99.90
9907;DHT22;4992;51.628;6.664;2024-03-02T01:57:43;9.30;99.90
9907;DHT22;4992;51.628;6.664;2024-03-02T02:00:10;9.40;99.90
9907;DHT22;4992;51.628;6.664;2024-03-02T02:02:36;9.40;99.90
9907;DHT22;4992;51.628;6.664;2024-03-02T02:05:02;9.40;99.90
9907;DHT22;4992;51.628;6.664;2024-03-02T02:07:28;9.40;99.90
9907;DHT22;4992;51.628;6.664;2024-03-02T02:09:54;9.50;99.90
9907;DHT22;4992;51.628;6.664;2024-03-02T02:12:19;9.50;99.90
9907;DHT22;4992;51.628;6.664;2024-03-02T02:14:49;9.50;99.90
9907;DHT22;4992;51.628;6.664;2024-03-02T02:17:15;9.50;99.90
9907;DHT22;4992;51.628;6.664;2024-03-02T02:19:41;9.50;99.90
9907;DHT22;4992;51.628;6.664;2024-03-02T02:22:08;9.50;99.90
9907;DHT22;4992;51.628;6.664;2024-03-02T02:24:33;9.50;99.90
9907;DHT22;4992;51.628;6.664;2024-03-02T02:26:59;9.60;99.90
9907;DHT22;4992;51.628;6.664;2024-03-02T02:29:24;9.60;99.90
9907;DHT22;4992;51.628;6.664;2024-03-02T02:31:50;9.60;99.90
9907;DHT22;4992;51.628;6.664;2024-03-02T02:34:16;9.60;99.90
9907;DHT22;4992;51.628;6.664;2024-03-02T02:36:42;9.60;99.90
9907;DHT22;4992;51.628;6.664;2024-03-02T02:39:11;9.60;99.90
9907;DHT22;4992;51.628;6.664;2024-03-02T02:41:38;9.60;99.90
9907;DHT22;4992;51.628;6.664;2024-03-02T02:44:04;9.60;99.90
9907;DHT22;4992;51.628;6.664;2024-03-02T02:46:30;9.60;99.90
9907;DHT22;4992;51.628;6.664;2024-03-02T02:48:56;9.60;99.90
9907;DHT22;4992;51.628;6.664;2024-03-02T02:51:21;9.60;99.90
9907;DHT22;4992;51.628;6.664;2024-03-02T02:53:47;9.50;99.90
9907;DHT22;4992;51.628;6.664;2024-03-02T02:56:12;9.50;99.90
9907;DHT22;4992;51.628;6.664;2024-03-02T02:58:39;9.50;99.90
9907;DHT22;4992;51.628;6.664;2024-03-02T03:01:05;9.50;99.90
9907;DHT22;4992;51.628;6.664;2024-03-02T03:03:30;9.50;99.90
9907;DHT22;4992;51.628;6.664;2024-03-02T03:05:56;9.50;99.90
9907;DHT22;4992;51.628;6.664;2024-03-02T03:08:22;9.40;99.90
9907;DHT22;4992;51.628;6.664;2024-03-02T03:10:48;9.30;99.90
9907;DHT22;4992;51.628;6.664;2024-03-02T03:13:14;9.30;99.90
9907;DHT22;4992;51.628;6.664;2024-03-02T03:15:40;9.30;99.90
9907;DHT22;4992;51.628;6.664;2024-03-02T03:18:06;9.20;99.90
9907;DHT22;4992;51.628;6.664;2024-03-02T03:20:33;9.20;99.90
9907;DHT22;4992;51.628;6.664;2024-03-02T03:22:59;9.20;99.90
9907;DHT22;4992;51.628;6.664;2024-03-02T03:25:24;9.20;99.90
9907;DHT22;4992;51.628;6.664;2024-03-02T03:27:50;9.10;99.90
9907;DHT22;4992;51.628;6.664;2024-03-02T03:30:18;9.10;99.90
9907;DHT22;4992;51.628;6.664;2024-03-02T03:32:44;9.10;99.90
9907;DHT22;4992;51.628;6.664;2024-03-02T03:35:09;9.00;99.90
9907;DHT22;4992;51.628;6.664;2024-03-02T03:37:35;9.00;99.90
9907;DHT22;4992;51.628;6.664;2024-03-02T03:40:04;8.90;99.90
9907;DHT22;4992;51.628;6.664;2024-03-02T03:42:38;8.90;99.90
9907;DHT22;4992;51.628;6.664;2024-03-02T03:45:05;8.90;99.90
9907;DHT22;4992;51.628;6.664;2024-03-02T03:47:32;8.90;99.90
9907;DHT22;4992;51.628;6.664;2024-03-02T03:49:57;8.80;99.90
9907;DHT22;4992;51.628;6.664;2024-03-02T03:52:23;8.80;99.90
9907;DHT22;4992;51.628;6.664;2024-03-02T03:54:49;8.80;99.90
9907;DHT22;4992;51.628;6.664;2024-03-02T03:57:14;8.80;99.90
9907;DHT22;4992;51.628;6.664;2024-03-02T03:59:40;8.90;99.90
9907;DHT22;4992;51.628;6.664;2024-03-02T04:02:06;8.80;99.90
9907;DHT22;4992;51.628;6.664;2024-03-02T04:04:31;8.80;99.90
9907;DHT22;4992;51.628;6.664;2024-03-02T04:06:57;8.70;99.90
9907;DHT22;4992;51.628;6.664;2024-03-02T04:09:22;8.70;99.90
9907;DHT22;4992;51.628;6.664;2024-03-02T04:11:48;8.70;99.90
9907;DHT22;4992;51.628;6.664;2024-03-02T04:14:13;8.60;99.90
9907;DHT22;4992;51.628;6.664;2024-03-02T04:16:39;8.50;99.90
9907;DHT22;4992;51.628;6.664;2024-03-02T04:19:05;8.50;99.90
9907;DHT22;4992;51.628;6.664;2024-03-02T04:21:30;8.50;99.90
9907;DHT22;4992;51.628;6.664;2024-03-02T04:23:56;8.40;99.90
9907;DHT22;4992;51.628;6.664;2024-03-02T04:26:25;8.40;99.90
9907;DHT22;4992;51.628;6.664;2024-03-02T04:28:51;8.40;99.90
9907;DHT22;4992;51.628;6.664;2024-03-02T04:31:17;8.30;99.90
9907;DHT22;4992;51.628;6.664;2024-03-02T04:33:42;8.30;99.90
9907;DHT22;4992;51.628;6.664;2024-03-02T04:36:08;8.20;99.90
9907;DHT22;4992;51.628;6.664;2024-03-02T04:38:35;8.20;99.90
9907;DHT22;4992;51.628;6.664;2024-03-02T04:41:00;8.10;99.90
9907;DHT22;4992;51.628;6.664;2024-03-02T04:43:26;8.00;99.90
9907;DHT22;4992;51.628;6.664;2024-03-02T04:45:52;8.00;99.90
9907;DHT22;4992;51.628;6.664;2024-03-02T04:48:17;8.00;99.90
9907;DHT22;4992;51.628;6.664;2024-03-02T04:50:43;8.00;99.90
9907;DHT22;4992;51.628;6.664;2024-03-02T04:53:09;8.00;99.90
9907;DHT22;4992;51.628;6.664;2024-03-02T04:55:34;8.00;99.90
9907;DHT22;4992;51.628;6.664;2024-03-02T04:58:00;8.00;99.90
9907;DHT22;4992;51.628;6.664;2024-03-02T05:00:25;8.00;99.90
9907;DHT22;4992;51.628;6.664;2024-03-02T05:02:51;8.00;99.90
9907;DHT22;4992;51.628;6.664;2024-03-02T05:05:16;8.00;99.90
9907;DHT22;4992;51.628;6.664;2024-03-02T05:07:42;8.00;99.90
9907;DHT22;4992;51.628;6.664;2024-03-02T05:10:09;8.00;99.90
9907;DHT22;4992;51.628;6.664;2024-03-02T05:12:35;8.00;99.90
9907;DHT22;4992;51.628;6.664;2024-03-02T05:15:15;8.00;99.90
9907;DHT22;4992;51.628;6.664;2024-03-02T05:17:42;7.90;99.90
9907;DHT22;4992;51.628;6.664;2024-03-02T05:20:09;7.90;99.90
9907;DHT22;4992;51.628;6.664;2024-03-02T05:22:35;7.80;99.90
9907;DHT22;4992;51.628;6.664;2024-03-02T05:25:04;7.70;99.90
9907;DHT22;4992;51.628;6.664;2024-03-02T05:27:30;7.60;99.90
9907;DHT22;4992;51.628;6.664;2024-03-02T05:29:58;7.60;99.90
9907;DHT22;4992;51.628;6.664;2024-03-02T05:32:23;7.50;99.90
9907;DHT22;4992;51.628;6.664;2024-03-02T05:34:49;7.40;99.90
9907;DHT22;4992;51.628;6.664;2024-03-02T05:37:16;7.30;99.90
9907;DHT22;4992;51.628;6.664;2024-03-02T05:39:41;7.20;99.90
9907;DHT22;4992;51.628;6.664;2024-03-02T05:42:08;7.10;99.90
9907;DHT22;4992;51.628;6.664;2024-03-02T05:44:35;7.00;99.90
9907;DHT22;4992;51.628;6.664;2024-03-02T05:47:00;7.00;99.90
9907;DHT22;4992;51.628;6.664;2024-03-02T05:49:26;6.80;99.90
9907;DHT22;4992;51.628;6.664;2024-03-02T05:51:51;6.80;99.90
9907;DHT22;4992;51.628;6.664;2024-03-02T05:54:17;6.60;99.90
9907;DHT22;4992;51.628;6.664;2024-03-02T05:56:42;6.60;99.90
9907;DHT22;4992;51.628;6.664;2024-03-02T05:59:08;6.50;99.90
9907;DHT22;4992;51.628;6.664;2024-03-02T06:04:05;6.40;99.90
9907;DHT22;4992;51.628;6.664;2024-03-02T06:06:31;6.40;99.90
9907;DHT22;4992;51.628;6.664;2024-03-02T06:08:59;6.40;99.90
9907;DHT22;4992;51.628;6.664;2024-03-02T06:11:25;6.30;99.90
9907;DHT22;4992;51.628;6.664;2024-03-02T06:13:50;6.30;99.90
9907;DHT22;4992;51.628;6.664;2024-03-02T06:16:16;6.30;99.90
9907;DHT22;4992;51.628;6.664;2024-03-02T06:18:41;6.20;99.90
9907;DHT22;4992;51.628;6.664;2024-03-02T06:21:07;6.10;99.90
9907;DHT22;4992;51.628;6.664;2024-03-02T06:23:33;6.00;99.90
9907;DHT22;4992;51.628;6.664;2024-03-02T06:26:00;6.00;99.90
9907;DHT22;4992;51.628;6.664;2024-03-02T06:28:25;6.00;99.90
9907;DHT22;4992;51.628;6.664;2024-03-02T06:30:51;5.90;99.90
9907;DHT22;4992;51.628;6.664;2024-03-02T06:33:17;5.90;99.90
9907;DHT22;4992;51.628;6.664;2024-03-02T06:35:42;5.90;99.90
9907;DHT22;4992;51.628;6.664;2024-03-02T06:38:08;5.90;99.90
9907;DHT22;4992;51.628;6.664;2024-03-02T06:40:34;6.00;99.90
9907;DHT22;4992;51.628;6.664;2024-03-02T06:42:59;6.00;99.90
9907;DHT22;4992;51.628;6.664;2024-03-02T06:45:25;6.10;99.90
9907;DHT22;4992;51.628;6.664;2024-03-02T06:47:50;6.10;99.90
9907;DHT22;4992;51.628;6.664;2024-03-02T06:50:16;6.20;99.90
9907;DHT22;4992;51.628;6.664;2024-03-02T06:52:41;6.30;99.90
9907;DHT22;4992;51.628;6.664;2024-03-02T06:55:07;6.40;99.90
9907;DHT22;4992;51.628;6.664;2024-03-02T06:57:33;6.40;99.90
9907;DHT22;4992;51.628;6.664;2024-03-02T06:59:58;6.50;99.90
9907;DHT22;4992;51.628;6.664;2024-03-02T07:02:24;6.60;99.90
9907;DHT22;4992;51.628;6.664;2024-03-02T07:04:52;6.60;99.90
9907;DHT22;4992;51.628;6.664;2024-03-02T07:07:18;6.70;99.90
9907;DHT22;4992;51.628;6.664;2024-03-02T07:09:44;6.80;99.90
9907;DHT22;4992;51.628;6.664;2024-03-02T07:12:09;6.90;99.90
9907;DHT22;4992;51.628;6.664;2024-03-02T07:14:35;7.10;99.90
9907;DHT22;4992;51.628;6.664;2024-03-02T07:17:33;7.20;99.90
9907;DHT22;4992;51.628;6.664;2024-03-02T07:19:59;7.40;99.90
9907;DHT22;4992;51.628;6.664;2024-03-02T07:22:24;7.50;99.90
9907;DHT22;4992;51.628;6.664;2024-03-02T07:24:50;7.60;99.90
9907;DHT22;4992;51.628;6.664;2024-03-02T07:27:17;7.80;99.90
9907;DHT22;4992;51.628;6.664;2024-03-02T07:29:43;7.90;99.90
9907;DHT22;4992;51.628;6.664;2024-03-02T07:32:09;8.00;99.90
9907;DHT22;4992;51.628;6.664;2024-03-02T07:34:35;8.10;99.90
9907;DHT22;4992;51.628;6.664;2024-03-02T07:37:02;8.20;99.90
9907;DHT22;4992;51.628;6.664;2024-03-02T07:39:28;8.30;99.90
9907;DHT22;4992;51.628;6.664;2024-03-02T07:41:54;8.40;99.90
9907;DHT22;4992;51.628;6.664;2024-03-02T07:44:20;8.40;99.90
9907;DHT22;4992;51.628;6.664;2024-03-02T07:46:46;8.40;99.90
9907;DHT22;4992;51.628;6.664;2024-03-02T07:49:13;8.50;99.90
9907;DHT22;4992;51.628;6.664;2024-03-02T07:51:42;8.60;99.90
9907;DHT22;4992;51.628;6.664;2024-03-02T07:54:08;8.80;99.90
9907;DHT22;4992;51.628;6.664;2024-03-02T07:56:34;9.00;99.90
9907;DHT22;4992;51.628;6.664;2024-03-02T07:59:00;9.10;99.90
9907;DHT22;4992;51.628;6.664;2024-03-02T08:01:27;9.10;99.90
9907;DHT22;4992;51.628;6.664;2024-03-02T08:03:54;9.20;99.90
9907;DHT22;4992;51.628;6.664;2024-03-02T08:06:22;9.20;99.90
9907;DHT22;4992;51.628;6.664;2024-03-02T08:08:48;9.20;99.90
9907;DHT22;4992;51.628;6.664;2024-03-02T08:11:13;9.20;99.90
9907;DHT22;4992;51.628;6.664;2024-03-02T08:13:39;9.30;99.90
9907;DHT22;4992;51.628;6.664;2024-03-02T08:16:05;9.40;99.90
9907;DHT22;4992;51.628;6.664;2024-03-02T08:18:33;9.50;99.90
9907;DHT22;4992;51.628;6.664;2024-03-02T08:20:59;9.60;99.90
9907;DHT22;4992;51.628;6.664;2024-03-02T08:23:25;9.70;99.90
9907;DHT22;4992;51.628;6.664;2024-03-02T08:25:50;9.80;99.90
9907;DHT22;4992;51.628;6.664;2024-03-02T08:28:16;9.80;99.90
9907;DHT22;4992;51.628;6.664;2024-03-02T08:30:42;9.90;99.90
9907;DHT22;4992;51.628;6.664;2024-03-02T08:33:08;10.00;99.90
9907;DHT22;4992;51.628;6.664;2024-03-02T08:35:33;10.10;99.90
9907;DHT22;4992;51.628;6.664;2024-03-02T08:38:03;10.20;99.90
9907;DHT22;4992;51.628;6.664;2024-03-02T08:40:28;10.10;99.90
9907;DHT22;4992;51.628;6.664;2024-03-02T08:42:54;10.20;99.90
9907;DHT22;4992;51.628;6.664;2024-03-02T08:45:20;10.30;99.90
9907;DHT22;4992;51.628;6.664;2024-03-02T08:47:46;10.30;99.90
9907;DHT22;4992;51.628;6.664;2024-03-02T08:50:12;10.40;99.90
9907;DHT22;4992;51.628;6.664;2024-03-02T08:52:37;10.40;99.90
9907;DHT22;4992;51.628;6.664;2024-03-02T08:55:03;10.40;99.90
9907;DHT22;4992;51.628;6.664;2024-03-02T08:57:29;10.40;99.90
9907;DHT22;4992;51.628;6.664;2024-03-02T08:59:54;10.30;99.90
9907;DHT22;4992;51.628;6.664;2024-03-02T09:02:20;10.30;99.90
9907;DHT22;4992;51.628;6.664;2024-03-02T09:04:45;10.30;99.90
9907;DHT22;4992;51.628;6.664;2024-03-02T09:07:11;10.30;99.90
9907;DHT22;4992;51.628;6.664;2024-03-02T09:09:36;10.30;99.90
9907;DHT22;4992;51.628;6.664;2024-03-02T09:12:05;10.30;99.90
9907;DHT22;4992;51.628;6.664;2024-03-02T09:14:30;10.30;99.90
9907;DHT22;4992;51.628;6.664;2024-03-02T09:16:56;10.40;99.90
9907;DHT22;4992;51.628;6.664;2024-03-02T09:19:22;10.30;99.90
9907;DHT22;4992;51.628;6.664;2024-03-02T09:21:47;10.40;99.90
9907;DHT22;4992;51.628;6.664;2024-03-02T09:24:13;10.40;99.90
9907;DHT22;4992;51.628;6.664;2024-03-02T09:26:38;10.40;99.90
9907;DHT22;4992;51.628;6.664;2024-03-02T09:29:04;10.50;99.90
9907;DHT22;4992;51.628;6.664;2024-03-02T09:31:29;10.60;99.90
9907;DHT22;4992;51.628;6.664;2024-03-02T09:33:55;10.60;99.90
9907;DHT22;4992;51.628;6.664;2024-03-02T09:36:22;10.70;99.90
9907;DHT22;4992;51.628;6.664;2024-03-02T09:38:48;10.70;99.90
9907;DHT22;4992;51.628;6.664;2024-03-02T09:41:14;10.80;99.90
9907;DHT22;4992;51.628;6.664;2024-03-02T09:43:41;10.80;99.90
9907;DHT22;4992;51.628;6.664;2024-03-02T09:46:09;10.80;99.90
9907;DHT22;4992;51.628;6.664;2024-03-02T09:48:34;10.80;99.90
9907;DHT22;4992;51.628;6.664;2024-03-02T09:51:00;10.90;99.90
9907;DHT22;4992;51.628;6.664;2024-03-02T09:53:31;11.00;99.90
9907;DHT22;4992;51.628;6.664;2024-03-02T09:55:57;11.10;99.90
9907;DHT22;4992;51.628;6.664;2024-03-02T09:58:22;11.20;99.90
9907;DHT22;4992;51.628;6.664;2024-03-02T10:00:48;11.40;99.90
9907;DHT22;4992;51.628;6.664;2024-03-02T10:03:14;11.40;99.90
9907;DHT22;4992;51.628;6.664;2024-03-02T10:05:40;11.40;99.90
9907;DHT22;4992;51.628;6.664;2024-03-02T10:08:05;11.50;99.90
9907;DHT22;4992;51.628;6.664;2024-03-02T10:10:39;11.50;99.90
9907;DHT22;4992;51.628;6.664;2024-03-02T10:13:10;11.60;99.90
9907;DHT22;4992;51.628;6.664;2024-03-02T10:15:37;11.70;99.90
9907;DHT22;4992;51.628;6.664;2024-03-02T10:18:04;11.80;99.90
9907;DHT22;4992;51.628;6.664;2024-03-02T10:20:30;11.80;99.90
9907;DHT22;4992;51.628;6.664;2024-03-02T10:23:13;11.90;99.90
9907;DHT22;4992;51.628;6.664;2024-03-02T10:25:39;11.90;99.90
9907;DHT22;4992;51.628;6.664;2024-03-02T10:28:05;11.90;99.90
9907;DHT22;4992;51.628;6.664;2024-03-02T10:30:31;12.00;99.90
9907;DHT22;4992;51.628;6.664;2024-03-02T10:32:57;11.90;99.90
9907;DHT22;4992;51.628;6.664;2024-03-02T10:35:23;12.00;99.90
9907;DHT22;4992;51.628;6.664;2024-03-02T10:37:49;12.00;99.90
9907;DHT22;4992;51.628;6.664;2024-03-02T10:40:15;12.10;99.90
9907;DHT22;4992;51.628;6.664;2024-03-02T10:42:41;12.20;99.90
9907;DHT22;4992;51.628;6.664;2024-03-02T10:45:11;12.40;99.90
9907;DHT22;4992;51.628;6.664;2024-03-02T10:47:38;12.60;99.90
9907;DHT22;4992;51.628;6.664;2024-03-02T10:50:07;12.70;99.90
9907;DHT22;4992;51.628;6.664;2024-03-02T10:52:35;12.70;99.90
9907;DHT22;4992;51.628;6.664;2024-03-02T10:55:00;12.80;99.90
9907;DHT22;4992;51.628;6.664;2024-03-02T10:57:27;13.00;99.90
9907;DHT22;4992;51.628;6.664;2024-03-02T11:00:02;13.20;99.90
9907;DHT22;4992;51.628;6.664;2024-03-02T11:02:30;13.40;99.90
9907;DHT22;4992;51.628;6.664;2024-03-02T11:05:00;13.50;99.90
9907;DHT22;4992;51.628;6.664;2024-03-02T11:07:33;13.70;99.90
9907;DHT22;4992;51.628;6.664;2024-03-02T11:10:01;13.90;99.90
9907;DHT22;4992;51.628;6.664;2024-03-02T11:12:39;14.00;99.90
9907;DHT22;4992;51.628;6.664;2024-03-02T11:15:11;14.20;99.90
9907;DHT22;4992;51.628;6.664;2024-03-02T11:17:39;14.50;99.90
9907;DHT22;4992;51.628;6.664;2024-03-02T11:20:07;14.60;99.90
9907;DHT22;4992;51.628;6.664;2024-03-02T11:22:35;14.70;99.90
9907;DHT22;4992;51.628;6.664;2024-03-02T11:25:01;14.80;99.90
9907;DHT22;4992;51.628;6.664;2024-03-02T11:28:00;15.00;99.90
9907;DHT22;4992;51.628;6.664;2024-03-02T11:33:05;15.90;99.90
9907;DHT22;4992;51.628;6.664;2024-03-02T11:35:33;16.30;99.90
9907;DHT22;4992;51.628;6.664;2024-03-02T11:37:59;16.50;99.90
9907;DHT22;4992;51.628;6.664;2024-03-02T11:40:25;16.70;99.90
9907;DHT22;4992;51.628;6.664;2024-03-02T11:42:50;16.80;99.90
9907;DHT22;4992;51.628;6.664;2024-03-02T11:45:17;16.70;99.90
9907;DHT22;4992;51.628;6.664;2024-03-02T11:47:49;16.90;99.90
9907;DHT22;4992;51.628;6.664;2024-03-02T11:50:15;17.40;99.90
9907;DHT22;4992;51.628;6.664;2024-03-02T11:52:42;17.80;99.90
9907;DHT22;4992;51.628;6.664;2024-03-02T11:55:08;18.00;99.90
9907;DHT22;4992;51.628;6.664;2024-03-02T11:57:35;18.40;99.90
9907;DHT22;4992;51.628;6.664;2024-03-02T12:00:00;18.30;99.90
9907;DHT22;4992;51.628;6.664;2024-03-02T12:02:29;18.50;99.90
9907;DHT22;4992;51.628;6.664;2024-03-02T12:04:54;18.60;99.90
9907;DHT22;4992;51.628;6.664;2024-03-02T12:07:24;18.80;99.90
9907;DHT22;4992;51.628;6.664;2024-03-02T12:09:59;18.80;99.90
9907;DHT22;4992;51.628;6.664;2024-03-02T12:12:26;18.90;99.90
9907;DHT22;4992;51.628;6.664;2024-03-02T12:14:52;19.00;99.90
9907;DHT22;4992;51.628;6.664;2024-03-02T12:17:20;19.20;99.90
9907;DHT22;4992;51.628;6.664;2024-03-02T12:19:46;19.20;99.90
9907;DHT22;4992;51.628;6.664;2024-03-02T12:22:12;19.20;99.90
9907;DHT22;4992;51.628;6.664;2024-03-02T12:24:37;19.30;99.90
9907;DHT22;4992;51.628;6.664;2024-03-02T12:27:05;19.40;99.00
9907;DHT22;4992;51.628;6.664;2024-03-02T12:29:31;19.30;99.60
9907;DHT22;4992;51.628;6.664;2024-03-02T12:31:56;18.70;99.40
9907;DHT22;4992;51.628;6.664;2024-03-02T12:34:22;18.10;99.70
9907;DHT22;4992;51.628;6.664;2024-03-02T12:36:49;17.50;99.90
9907;DHT22;4992;51.628;6.664;2024-03-02T12:39:18;17.10;99.90
9907;DHT22;4992;51.628;6.664;2024-03-02T12:41:48;16.80;99.90
9907;DHT22;4992;51.628;6.664;2024-03-02T12:44:16;16.50;99.90
9907;DHT22;4992;51.628;6.664;2024-03-02T12:46:41;16.30;99.90
9907;DHT22;4992;51.628;6.664;2024-03-02T12:49:09;16.20;99.90
9907;DHT22;4992;51.628;6.664;2024-03-02T12:51:36;16.20;99.90
9907;DHT22;4992;51.628;6.664;2024-03-02T12:54:02;16.30;99.90
9907;DHT22;4992;51.628;6.664;2024-03-02T12:56:29;16.30;99.90
9907;DHT22;4992;51.628;6.664;2024-03-02T12:58:55;16.20;99.90
9907;DHT22;4992;51.628;6.664;2024-03-02T13:01:20;16.10;99.90
9907;DHT22;4992;51.628;6.664;2024-03-02T13:03:49;16.00;99.90
9907;DHT22;4992;51.628;6.664;2024-03-02T13:06:17;15.90;99.90
9907;DHT22;4992;51.628;6.664;2024-03-02T13:08:43;15.80;99.90
9907;DHT22;4992;51.628;6.664;2024-03-02T13:11:09;15.80;99.90
9907;DHT22;4992;51.628;6.664;2024-03-02T13:13:35;15.70;99.90
9907;DHT22;4992;51.628;6.664;2024-03-02T13:16:01;15.70;99.90
9907;DHT22;4992;51.628;6.664;2024-03-02T13:18:28;15.60;99.90
9907;DHT22;4992;51.628;6.664;2024-03-02T13:20:54;15.70;99.90
9907;DHT22;4992;51.628;6.664;2024-03-02T13:23:21;15.80;99.90
9907;DHT22;4992;51.628;6.664;2024-03-02T13:25:47;15.90;99.90
9907;DHT22;4992;51.628;6.664;2024-03-02T13:28:13;16.20;99.90
9907;DHT22;4992;51.628;6.664;2024-03-02T13:30:38;16.30;99.90
9907;DHT22;4992;51.628;6.664;2024-03-02T13:33:04;16.30;99.90
9907;DHT22;4992;51.628;6.664;2024-03-02T13:35:30;16.30;99.90
9907;DHT22;4992;51.628;6.664;2024-03-02T13:37:55;16.30;99.90
9907;DHT22;4992;51.628;6.664;2024-03-02T13:40:21;16.30;99.90
9907;DHT22;4992;51.628;6.664;2024-03-02T13:42:46;16.30;99.90
9907;DHT22;4992;51.628;6.664;2024-03-02T13:45:13;16.50;99.90
9907;DHT22;4992;51.628;6.664;2024-03-02T13:47:39;16.60;99.90
9907;DHT22;4992;51.628;6.664;2024-03-02T13:50:04;16.80;99.90
9907;DHT22;4992;51.628;6.664;2024-03-02T13:52:31;16.70;99.90
9907;DHT22;4992;51.628;6.664;2024-03-02T13:54:57;16.60;99.90
9907;DHT22;4992;51.628;6.664;2024-03-02T13:57:22;16.40;99.90
9907;DHT22;4992;51.628;6.664;2024-03-02T13:59:48;16.20;99.90
9907;DHT22;4992;51.628;6.664;2024-03-02T14:02:15;16.00;99.90
9907;DHT22;4992;51.628;6.664;2024-03-02T14:04:40;16.00;99.90
9907;DHT22;4992;51.628;6.664;2024-03-02T14:07:07;16.20;99.90
9907;DHT22;4992;51.628;6.664;2024-03-02T14:09:32;16.20;99.90
9907;DHT22;4992;51.628;6.664;2024-03-02T14:11:58;16.10;99.90
9907;DHT22;4992;51.628;6.664;2024-03-02T14:14:26;16.00;99.90
9907;DHT22;4992;51.628;6.664;2024-03-02T14:16:52;16.00;99.90
9907;DHT22;4992;51.628;6.664;2024-03-02T14:19:18;16.00;99.90
9907;DHT22;4992;51.628;6.664;2024-03-02T14:21:44;15.90;99.90
9907;DHT22;4992;51.628;6.664;2024-03-02T14:24:09;15.90;99.90
9907;DHT22;4992;51.628;6.664;2024-03-02T14:26:36;16.30;99.90
9907;DHT22;4992;51.628;6.664;2024-03-02T14:29:04;16.60;99.90
9907;DHT22;4992;51.628;6.664;2024-03-02T14:31:30;16.70;99.90
9907;DHT22;4992;51.628;6.664;2024-03-02T14:33:59;16.80;99.90
9907;DHT22;4992;51.628;6.664;2024-03-02T14:36:25;17.10;99.90
9907;DHT22;4992;51.628;6.664;2024-03-02T14:38:52;17.30;99.90
9907;DHT22;4992;51.628;6.664;2024-03-02T14:41:18;17.30;99.90
9907;DHT22;4992;51.628;6.664;2024-03-02T14:43:44;17.00;99.90
9907;DHT22;4992;51.628;6.664;2024-03-02T14:46:09;16.90;99.90
9907;DHT22;4992;51.628;6.664;2024-03-02T14:48:36;16.90;99.90
9907;DHT22;4992;51.628;6.664;2024-03-02T14:51:02;16.80;99.90
9907;DHT22;4992;51.628;6.664;2024-03-02T14:53:27;16.50;99.90
9907;DHT22;4992;51.628;6.664;2024-03-02T14:55:54;16.10;99.90
9907;DHT22;4992;51.628;6.664;2024-03-02T14:58:19;16.00;99.90
9907;DHT22;4992;51.628;6.664;2024-03-02T15:00:45;15.80;99.90
9907;DHT22;4992;51.628;6.664;2024-03-02T15:03:11;15.70;99.90
9907;DHT22;4992;51.628;6.664;2024-03-02T15:05:37;15.60;99.90
9907;DHT22;4992;51.628;6.664;2024-03-02T15:08:04;15.50;99.90
9907;DHT22;4992;51.628;6.664;2024-03-02T15:10:30;15.40;99.90
9907;DHT22;4992;51.628;6.664;2024-03-02T15:12:57;15.30;99.90
9907;DHT22;4992;51.628;6.664;2024-03-02T15:15:23;15.30;99.90
9907;DHT22;4992;51.628;6.664;2024-03-02T15:17:48;15.30;99.90
9907;DHT22;4992;51.628;6.664;2024-03-02T15:20:14;15.30;99.90
9907;DHT22;4992;51.628;6.664;2024-03-02T15:22:40;15.30;99.90
9907;DHT22;4992;51.628;6.664;2024-03-02T15:25:06;15.30;99.90
9907;DHT22;4992;51.628;6.664;2024-03-02T15:27:32;15.30;99.90
9907;DHT22;4992;51.628;6.664;2024-03-02T15:29:57;15.30;99.90
9907;DHT22;4992;51.628;6.664;2024-03-02T15:32:23;15.20;99.90
9907;DHT22;4992;51.628;6.664;2024-03-02T15:34:50;15.10;99.90
9907;DHT22;4992;51.628;6.664;2024-03-02T15:37:17;14.90;99.90
9907;DHT22;4992;51.628;6.664;2024-03-02T15:39:42;14.80;99.90
9907;DHT22;4992;51.628;6.664;2024-03-02T15:42:09;14.70;99.90
9907;DHT22;4992;51.628;6.664;2024-03-02T15:44:35;14.70;99.90
9907;DHT22;4992;51.628;6.664;2024-03-02T15:47:00;14.60;99.90
9907;DHT22;4992;51.628;6.664;2024-03-02T15:49:26;14.60;99.90
9907;DHT22;4992;51.628;6.664;2024-03-02T15:51:53;14.60;99.90
9907;DHT22;4992;51.628;6.664;2024-03-02T15:54:19;14.60;99.90
9907;DHT22;4992;51.628;6.664;2024-03-02T15:56:44;14.70;99.90
9907;DHT22;4992;51.628;6.664;2024-03-02T15:59:10;14.70;99.90
9907;DHT22;4992;51.628;6.664;2024-03-02T16:01:36;14.80;99.90
9907;DHT22;4992;51.628;6.664;2024-03-02T16:04:02;14.80;99.90
9907;DHT22;4992;51.628;6.664;2024-03-02T16:06:28;14.80;99.90
9907;DHT22;4992;51.628;6.664;2024-03-02T16:08:53;14.80;99.90
9907;DHT22;4992;51.628;6.664;2024-03-02T16:11:21;14.80;99.90